createdAt,value
2023-04-08T00:01:06.106Z,7.63
2023-04-08T00:03:31.923Z,6.60
2023-04-08T00:05:57.795Z,6.82
2023-04-08T00:08:23.551Z,7.28
2023-04-08T00:10:49.265Z,6.63
2023-04-08T00:13:15.046Z,6.03
2023-04-08T00:15:41.209Z,7.57
2023-04-08T00:18:07.533Z,7.15
2023-04-08T00:20:33.567Z,6.82
2023-04-08T00:22:59.339Z,7.47
2023-04-08T00:25:25.776Z,6.65
2023-04-08T00:27:51.812Z,7.50
2023-04-08T00:30:17.612Z,7.07
2023-04-08T00:32:43.978Z,7.65
2023-04-08T00:35:10.033Z,8.43
2023-04-08T00:37:35.767Z,7.78
2023-04-08T00:40:01.499Z,8.07
2023-04-08T00:42:27.846Z,8.68
2023-04-08T00:44:53.597Z,8.30
2023-04-08T00:47:19.372Z,9.70
2023-04-08T00:49:45.343Z,8.88
2023-04-08T00:52:11.147Z,9.13
2023-04-08T00:54:37.396Z,12.00
2023-04-08T00:57:04.505Z,9.45
2023-04-08T00:59:30.713Z,11.25
2023-04-08T01:02:14.487Z,11.45
2023-04-08T01:04:43.151Z,10.98
2023-04-08T01:07:15.257Z,13.90
2023-04-08T01:09:44.832Z,11.88
2023-04-08T01:12:11.963Z,10.48
2023-04-08T01:14:39.361Z,12.23
2023-04-08T01:17:05.598Z,13.38
2023-04-08T01:19:33.030Z,13.07
2023-04-08T01:22:04.974Z,13.93
2023-04-08T01:24:33.073Z,13.35
2023-04-08T01:27:01.013Z,13.10
2023-04-08T01:29:27.518Z,13.88
2023-04-08T01:31:53.737Z,14.30
2023-04-08T01:34:20.429Z,15.07
2023-04-08T01:36:46.466Z,16.83
2023-04-08T01:39:13.195Z,16.15
2023-04-08T01:41:39.184Z,17.00
2023-04-08T01:44:05.157Z,18.55
2023-04-08T01:46:31.856Z,19.35
2023-04-08T01:48:58.353Z,14.20
2023-04-08T01:51:24.257Z,17.00
2023-04-08T01:53:50.053Z,18.70
2023-04-08T01:56:16.334Z,15.80
2023-04-08T01:58:45.659Z,17.60
2023-04-08T02:01:13.119Z,16.45
2023-04-08T02:03:40.916Z,16.52
2023-04-08T02:06:06.737Z,14.73
2023-04-08T02:08:33.355Z,16.67
2023-04-08T02:10:59.158Z,17.92
2023-04-08T02:13:25.093Z,15.55
2023-04-08T02:15:53.436Z,17.80
2023-04-08T02:18:24.888Z,18.33
2023-04-08T02:20:56.819Z,17.13
2023-04-08T02:23:24.320Z,16.83
2023-04-08T02:25:52.508Z,15.43
2023-04-08T02:28:19.113Z,18.75
2023-04-08T02:30:49.289Z,17.73
2023-04-08T02:33:16.617Z,21.30
2023-04-08T02:35:42.967Z,16.95
2023-04-08T02:38:09.783Z,19.63
2023-04-08T02:40:36.339Z,18.60
2023-04-08T02:43:02.162Z,19.63
2023-04-08T02:45:30.806Z,19.75
2023-04-08T02:47:56.970Z,18.55
2023-04-08T02:50:22.751Z,17.63
2023-04-08T02:52:48.469Z,20.70
2023-04-08T02:55:14.183Z,21.73
2023-04-08T02:57:40.511Z,18.30
2023-04-08T03:00:06.628Z,19.23
2023-04-08T03:02:32.700Z,19.65
2023-04-08T03:04:58.758Z,18.50
2023-04-08T03:07:24.705Z,18.00
2023-04-08T03:09:50.719Z,20.90
2023-04-08T03:12:16.585Z,18.98
2023-04-08T03:14:42.337Z,21.13
2023-04-08T03:17:08.079Z,18.92
2023-04-08T03:19:33.822Z,21.10
2023-04-08T03:21:59.620Z,19.45
2023-04-08T03:24:25.419Z,20.88
2023-04-08T03:26:51.176Z,19.00
2023-04-08T03:29:16.925Z,20.58
2023-04-08T03:31:42.885Z,20.63
2023-04-08T03:34:08.645Z,21.38
2023-04-08T03:36:34.567Z,20.08
2023-04-08T03:39:00.339Z,21.08
2023-04-08T03:41:26.058Z,20.63
2023-04-08T03:43:51.803Z,21.02
2023-04-08T03:46:17.771Z,20.73
2023-04-08T03:48:43.581Z,20.88
2023-04-08T03:51:09.321Z,20.25
2023-04-08T03:53:35.025Z,22.10
2023-04-08T03:56:02.114Z,21.83
2023-04-08T03:58:28.242Z,20.92
2023-04-08T04:00:53.967Z,22.92
2023-04-08T04:03:20.041Z,20.23
2023-04-08T04:05:46.122Z,22.02
2023-04-08T04:08:11.847Z,23.30
2023-04-08T04:10:37.563Z,19.75
2023-04-08T04:13:03.282Z,21.48
2023-04-08T04:15:29.083Z,22.13
2023-04-08T04:17:54.936Z,23.55
2023-04-08T04:20:21.339Z,22.08
2023-04-08T04:22:47.119Z,22.05
2023-04-08T04:25:12.852Z,21.63
2023-04-08T04:27:38.626Z,24.67
2023-04-08T04:30:05.076Z,24.15
2023-04-08T04:32:30.843Z,22.08
2023-04-08T04:34:56.594Z,21.38
2023-04-08T04:37:22.506Z,20.58
2023-04-08T04:39:48.213Z,22.70
2023-04-08T04:42:13.931Z,20.17
2023-04-08T04:44:39.715Z,18.95
2023-04-08T04:47:05.538Z,22.85
2023-04-08T04:49:31.470Z,19.55
2023-04-08T04:51:57.176Z,20.80
2023-04-08T04:54:22.915Z,22.55
2023-04-08T04:56:48.619Z,21.70
2023-04-08T04:59:14.400Z,21.88
2023-04-08T05:01:40.580Z,21.83
2023-04-08T05:04:06.929Z,22.17
2023-04-08T05:06:33.009Z,21.48
2023-04-08T05:08:58.798Z,21.00
2023-04-08T05:11:24.652Z,23.13
2023-04-08T05:13:50.422Z,21.08
2023-04-08T05:16:17.133Z,22.95
2023-04-08T05:18:42.977Z,21.15
2023-04-08T05:21:08.922Z,25.58
2023-04-08T05:23:34.956Z,23.73
2023-04-08T05:26:00.844Z,24.65
2023-04-08T05:28:26.726Z,21.35
2023-04-08T05:30:52.858Z,20.67
2023-04-08T05:33:18.827Z,23.35
2023-04-08T05:35:45.078Z,20.17
2023-04-08T05:38:11.863Z,22.83
2023-04-08T05:40:37.674Z,24.85
2023-04-08T05:43:03.680Z,24.40
2023-04-08T05:45:35.099Z,22.27
2023-04-08T05:48:00.962Z,22.90
2023-04-08T05:50:26.800Z,23.10
2023-04-08T05:52:52.667Z,21.45
2023-04-08T05:55:18.509Z,22.00
2023-04-08T05:57:44.312Z,23.50
2023-04-08T06:00:10.894Z,23.52
2023-04-08T06:02:39.759Z,22.45
2023-04-08T06:05:06.095Z,20.15
2023-04-08T06:07:32.167Z,21.73
2023-04-08T06:09:57.950Z,23.13
2023-04-08T06:12:23.859Z,22.17
2023-04-08T06:14:57.008Z,24.83
2023-04-08T06:17:23.593Z,23.58
2023-04-08T06:19:49.739Z,21.58
2023-04-08T06:22:15.894Z,21.88
2023-04-08T06:24:41.852Z,20.17
2023-04-08T06:27:07.739Z,21.63
2023-04-08T06:29:33.479Z,21.58
2023-04-08T06:31:59.472Z,20.38
2023-04-08T06:34:25.435Z,21.88
2023-04-08T06:36:51.232Z,21.33
2023-04-08T06:39:18.913Z,22.25
2023-04-08T06:41:45.358Z,20.40
2023-04-08T06:44:13.715Z,23.58
2023-04-08T06:46:39.831Z,24.23
2023-04-08T06:49:06.433Z,20.98
2023-04-08T06:51:32.363Z,21.52
2023-04-08T06:53:58.212Z,18.88
2023-04-08T06:56:25.670Z,22.08
2023-04-08T06:58:51.853Z,22.50
2023-04-08T07:01:17.686Z,21.98
2023-04-08T07:03:43.551Z,21.67
2023-04-08T07:06:09.538Z,21.20
2023-04-08T07:08:36.039Z,22.40
2023-04-08T07:11:01.983Z,22.55
2023-04-08T07:13:28.878Z,23.40
2023-04-08T07:15:54.799Z,21.75
2023-04-08T07:18:21.910Z,21.48
2023-04-08T07:20:50.879Z,20.30
2023-04-08T07:23:16.734Z,22.30
2023-04-08T07:25:42.568Z,22.92
2023-04-08T07:28:08.340Z,22.45
2023-04-08T07:30:34.155Z,22.77
2023-04-08T07:33:00.921Z,22.13
2023-04-08T07:35:27.226Z,22.15
2023-04-08T07:37:53.822Z,20.52
2023-04-08T07:40:20.310Z,20.63
2023-04-08T07:42:46.484Z,21.00
2023-04-08T07:45:12.408Z,23.35
2023-04-08T07:47:38.179Z,22.45
2023-04-08T07:50:04.138Z,20.70
2023-04-08T07:52:30.270Z,22.83
2023-04-08T07:54:56.088Z,21.77
2023-04-08T07:57:24.366Z,18.88
2023-04-08T07:59:50.708Z,21.20
2023-04-08T08:02:16.697Z,21.52
2023-04-08T08:04:42.833Z,20.85
2023-04-08T08:07:08.816Z,21.88
2023-04-08T08:09:34.648Z,21.45
2023-04-08T08:12:00.476Z,22.58
2023-04-08T08:14:26.248Z,21.40
2023-04-08T08:16:58.305Z,20.38
2023-04-08T08:19:24.256Z,21.60
2023-04-08T08:21:53.603Z,22.23
2023-04-08T08:24:19.568Z,22.20
2023-04-08T08:26:47.017Z,21.35
2023-04-08T08:29:13.135Z,22.20
2023-04-08T08:31:39.543Z,21.38
2023-04-08T08:34:05.633Z,20.63
2023-04-08T08:36:32.740Z,21.38
2023-04-08T08:38:59.380Z,22.58
2023-04-08T08:41:25.368Z,20.98
2023-04-08T08:43:51.665Z,18.30
2023-04-08T08:46:21.030Z,18.90
2023-04-08T08:48:47.005Z,20.98
2023-04-08T08:51:13.092Z,20.30
2023-04-08T08:53:38.992Z,19.48
2023-04-08T08:56:17.896Z,19.85
2023-04-08T08:58:44.342Z,20.80
2023-04-08T09:01:29.104Z,19.63
2023-04-08T09:04:09.741Z,19.63
2023-04-08T09:06:36.357Z,20.30
2023-04-08T09:09:05.352Z,20.05
2023-04-08T09:11:31.287Z,19.02
2023-04-08T09:13:57.791Z,20.10
2023-04-08T09:16:31.552Z,20.35
2023-04-08T09:19:07.896Z,18.75
2023-04-08T09:21:34.970Z,20.48
2023-04-08T09:24:00.874Z,21.67
2023-04-08T09:26:26.983Z,19.50
2023-04-08T09:29:05.882Z,20.40
2023-04-08T09:31:40.779Z,18.67
2023-04-08T09:34:11.314Z,18.65
2023-04-08T09:36:37.614Z,19.48
2023-04-08T09:39:03.574Z,18.92
2023-04-08T09:41:32.905Z,20.17
2023-04-08T09:44:00.158Z,17.88
2023-04-08T09:46:32.781Z,19.08
2023-04-08T09:49:07.827Z,17.55
2023-04-08T09:51:40.754Z,18.15
2023-04-08T09:54:12.603Z,18.13
2023-04-08T09:56:44.086Z,17.23
2023-04-08T09:59:21.283Z,17.63
2023-04-08T10:01:52.057Z,17.08
2023-04-08T10:06:44.564Z,16.80
2023-04-08T10:09:10.846Z,17.52
2023-04-08T10:11:36.806Z,16.30
2023-04-08T10:14:03.846Z,15.15
2023-04-08T10:16:42.150Z,15.50
2023-04-08T10:19:31.574Z,19.33
2023-04-08T10:21:57.432Z,16.45
2023-04-08T10:24:25.313Z,18.30
2023-04-08T10:26:51.258Z,17.50
2023-04-08T10:29:17.219Z,17.92
2023-04-08T10:31:43.868Z,16.77
2023-04-08T10:34:24.120Z,18.15
2023-04-08T10:36:49.987Z,18.00
2023-04-08T10:39:16.290Z,17.65
2023-04-08T10:41:45.971Z,17.05
2023-04-08T10:44:35.605Z,16.73
2023-04-08T10:47:01.557Z,16.25
2023-04-08T10:49:34.219Z,16.02
2023-04-08T10:52:00.382Z,16.23
2023-04-08T10:54:26.782Z,16.35
2023-04-08T10:56:53.161Z,16.10
2023-04-08T10:59:39.185Z,15.82
2023-04-08T11:02:05.756Z,14.63
2023-04-08T11:04:31.994Z,15.15
2023-04-08T11:06:58.801Z,15.80
2023-04-08T11:09:25.172Z,14.43
2023-04-08T11:11:51.811Z,16.83
2023-04-08T11:14:21.166Z,14.10
2023-04-08T11:16:47.348Z,13.50
2023-04-08T11:19:13.219Z,14.27
2023-04-08T11:21:39.238Z,14.38
2023-04-08T11:24:13.482Z,13.60
2023-04-08T11:26:39.906Z,13.73
2023-04-08T11:29:07.009Z,13.55
2023-04-08T11:31:33.600Z,13.60
2023-04-08T11:33:59.622Z,12.55
2023-04-08T11:36:26.556Z,15.32
2023-04-08T11:38:53.891Z,13.57
2023-04-08T11:41:21.754Z,14.50
2023-04-08T11:43:55.286Z,15.48
2023-04-08T11:46:21.696Z,13.52
2023-04-08T11:48:57.400Z,14.93
2023-04-08T11:51:23.662Z,14.90
2023-04-08T11:53:52.607Z,15.95
2023-04-08T11:56:20.997Z,15.07
2023-04-08T11:58:47.419Z,14.25
2023-04-08T12:01:13.516Z,14.57
2023-04-08T12:03:40.005Z,14.73
2023-04-08T12:06:08.301Z,15.77
2023-04-08T12:08:34.236Z,14.93
2023-04-08T12:11:12.952Z,16.65
2023-04-08T12:13:42.972Z,12.45
2023-04-08T12:16:08.896Z,12.68
2023-04-08T12:18:34.884Z,12.98
2023-04-08T12:21:01.336Z,11.95
2023-04-08T12:23:27.188Z,13.63
2023-04-08T12:25:54.015Z,13.77
2023-04-08T12:28:20.131Z,12.30
2023-04-08T12:30:48.174Z,12.20
2023-04-08T12:33:13.986Z,12.80
2023-04-08T12:35:40.071Z,12.77
2023-04-08T12:38:06.364Z,13.25
2023-04-08T12:40:32.315Z,12.73
2023-04-08T12:42:58.181Z,12.43
2023-04-08T12:45:30.283Z,13.15
2023-04-08T12:47:56.282Z,10.75
2023-04-08T12:50:22.974Z,11.50
2023-04-08T12:52:49.037Z,11.05
2023-04-08T12:55:15.635Z,10.85
2023-04-08T12:57:41.555Z,12.15
2023-04-08T13:00:08.091Z,11.50
2023-04-08T13:02:33.940Z,11.65
2023-04-08T13:04:59.836Z,12.18
2023-04-08T13:07:25.669Z,12.50
2023-04-08T13:09:51.591Z,11.15
2023-04-08T13:12:17.505Z,10.55
2023-04-08T13:14:43.460Z,8.98
2023-04-08T13:17:09.511Z,10.85
2023-04-08T13:19:36.730Z,9.38
2023-04-08T13:22:03.167Z,11.57
2023-04-08T13:24:29.000Z,10.75
2023-04-08T13:26:55.352Z,9.63
2023-04-08T13:29:21.220Z,10.88
2023-04-08T13:31:47.184Z,11.57
2023-04-08T13:34:13.415Z,11.48
2023-04-08T13:36:39.361Z,11.25
2023-04-08T13:39:05.228Z,8.73
2023-04-08T13:41:31.353Z,9.18
2023-04-08T13:43:58.008Z,12.40
2023-04-08T13:46:24.436Z,9.93
2023-04-08T13:48:51.125Z,11.32
2023-04-08T13:51:17.301Z,10.18
2023-04-08T13:53:43.078Z,8.38
2023-04-08T13:56:09.037Z,11.10
2023-04-08T13:58:34.852Z,9.68
2023-04-08T14:01:01.181Z,9.00
2023-04-08T14:03:27.468Z,9.77
2023-04-08T14:05:54.249Z,8.50
2023-04-08T14:08:24.637Z,7.38
2023-04-08T14:10:51.299Z,7.82
2023-04-08T14:13:17.192Z,7.20
2023-04-08T14:15:54.740Z,7.53
2023-04-08T14:18:20.804Z,6.25
2023-04-08T14:20:46.765Z,6.70
2023-04-08T14:23:12.933Z,7.32
2023-04-08T14:25:40.308Z,7.10
2023-04-08T14:28:07.488Z,7.35
2023-04-08T14:30:35.387Z,7.45
2023-04-08T14:33:01.596Z,6.43
2023-04-08T14:35:30.304Z,6.90
2023-04-08T14:37:56.269Z,5.50
2023-04-08T14:40:22.362Z,6.10
2023-04-08T14:42:49.319Z,7.30
2023-04-08T14:45:15.579Z,9.35
2023-04-08T14:47:41.645Z,9.00
2023-04-08T14:50:07.818Z,7.85
2023-04-08T14:52:33.611Z,8.40
2023-04-08T14:54:59.435Z,9.35
2023-04-08T14:57:25.261Z,7.72
2023-04-08T14:59:51.836Z,8.60
2023-04-08T15:02:17.836Z,6.90
2023-04-08T15:04:43.676Z,7.97
2023-04-08T15:07:09.964Z,6.57
2023-04-08T15:09:35.793Z,7.25
2023-04-08T15:12:02.992Z,7.55
2023-04-08T15:14:28.920Z,7.22
2023-04-08T15:16:57.822Z,7.47
2023-04-08T15:19:23.735Z,7.60
2023-04-08T15:21:49.640Z,7.72
2023-04-08T15:24:15.526Z,7.47
2023-04-08T15:26:41.864Z,7.70
2023-04-08T15:39:53.516Z,6.97
2023-04-08T15:42:20.012Z,7.47
2023-04-08T15:44:45.991Z,6.68
2023-04-08T15:47:12.334Z,6.38
2023-04-08T15:49:38.277Z,7.72
2023-04-08T15:52:04.628Z,7.55
2023-04-08T15:54:31.611Z,6.35
2023-04-08T15:56:57.688Z,6.10
2023-04-08T15:59:24.030Z,10.40
2023-04-08T16:01:52.810Z,7.13
2023-04-08T16:04:19.181Z,7.00
2023-04-08T16:06:47.347Z,7.07
2023-04-08T16:09:13.421Z,6.88
2023-04-08T16:11:41.943Z,7.30
2023-04-08T16:14:07.879Z,6.95
2023-04-08T16:16:43.083Z,6.13
2023-04-08T16:19:09.134Z,6.40
2023-04-08T16:21:35.434Z,6.80
2023-04-08T16:24:01.491Z,6.97
2023-04-08T16:26:28.216Z,7.22
2023-04-08T16:28:54.532Z,6.07
2023-04-08T16:33:55.310Z,7.65
2023-04-08T16:36:21.256Z,7.03
2023-04-08T16:38:47.151Z,7.13
2023-04-08T16:41:13.331Z,6.70
2023-04-08T16:43:39.237Z,6.95
2023-04-08T16:46:16.887Z,7.07
2023-04-08T16:48:43.698Z,7.60
2023-04-08T16:51:09.574Z,6.68
2023-04-08T16:53:37.054Z,7.88
2023-04-08T16:56:03.291Z,7.43
2023-04-08T16:58:29.515Z,7.70
2023-04-08T17:00:55.712Z,7.82
2023-04-08T17:03:21.722Z,8.20
2023-04-08T17:05:47.933Z,7.10
2023-04-08T17:08:14.289Z,7.65
2023-04-08T17:10:40.453Z,7.38
2023-04-08T17:13:06.992Z,7.90
2023-04-08T17:15:35.898Z,9.55
2023-04-08T17:18:01.944Z,7.50
2023-04-08T17:20:28.550Z,8.18
2023-04-08T17:22:54.878Z,8.85
2023-04-08T17:25:20.812Z,10.73
2023-04-08T17:27:48.064Z,11.32
2023-04-08T17:30:14.027Z,10.77
2023-04-08T17:32:39.980Z,12.45
2023-04-08T17:35:07.005Z,12.40
2023-04-08T17:37:32.749Z,11.82
2023-04-08T17:39:58.861Z,10.57
2023-04-08T17:42:24.966Z,12.38
2023-04-08T17:44:50.736Z,13.55
2023-04-08T17:47:16.661Z,13.68
2023-04-08T17:49:42.563Z,13.30
2023-04-08T17:52:09.096Z,14.85
2023-04-08T17:54:34.988Z,16.58
2023-04-08T17:57:03.867Z,16.95
2023-04-08T17:59:29.702Z,15.65
2023-04-08T18:01:55.520Z,15.80
2023-04-08T18:04:22.126Z,17.10
2023-04-08T18:06:48.450Z,16.20
2023-04-08T18:09:14.483Z,17.33
2023-04-08T18:11:40.506Z,14.77
2023-04-08T18:14:06.471Z,14.48
2023-04-08T18:16:38.669Z,14.80
2023-04-08T18:19:04.511Z,15.52
2023-04-08T18:21:30.860Z,15.98
2023-04-08T18:23:56.645Z,15.13
2023-04-08T18:26:22.447Z,14.73
2023-04-08T18:28:48.302Z,16.40
2023-04-08T18:31:14.285Z,15.90
2023-04-08T18:33:40.189Z,15.35
2023-04-08T18:36:07.370Z,16.35
2023-04-08T18:38:35.500Z,15.95
2023-04-08T18:41:02.378Z,16.90
2023-04-08T18:43:28.414Z,16.13
2023-04-08T18:45:54.226Z,15.90
2023-04-08T18:48:20.131Z,16.38
2023-04-08T18:50:45.989Z,16.58
2023-04-08T18:53:11.873Z,16.60
2023-04-08T18:55:38.402Z,17.75
2023-04-08T18:58:05.017Z,17.17
2023-04-08T19:00:30.962Z,16.92
2023-04-08T19:02:57.493Z,18.60
2023-04-08T19:05:23.536Z,18.70
2023-04-08T19:07:49.452Z,19.33
2023-04-08T19:10:15.296Z,19.90
2023-04-08T19:12:41.144Z,18.65
2023-04-08T19:15:07.364Z,19.65
2023-04-08T19:17:33.388Z,21.42
2023-04-08T19:19:59.361Z,20.63
2023-04-08T19:22:25.502Z,20.45
2023-04-08T19:24:52.476Z,20.65
2023-04-08T19:27:20.676Z,20.13
2023-04-08T19:29:46.703Z,18.77
2023-04-08T19:32:13.867Z,20.95
2023-04-08T19:34:40.139Z,19.90
2023-04-08T19:37:06.791Z,19.10
2023-04-08T19:39:32.969Z,17.63
2023-04-08T19:41:59.011Z,18.85
2023-04-08T19:44:25.513Z,18.13
2023-04-08T19:46:51.546Z,16.70
2023-04-08T19:49:19.268Z,19.65
2023-04-08T19:51:45.068Z,18.20
2023-04-08T19:54:11.455Z,17.80
2023-04-08T19:56:37.423Z,17.52
2023-04-08T19:59:03.656Z,18.20
2023-04-08T20:01:29.717Z,17.80
2023-04-08T20:03:55.796Z,16.98
2023-04-08T20:06:22.509Z,17.08
2023-04-08T20:08:49.839Z,18.63
2023-04-08T20:11:16.229Z,16.92
2023-04-08T20:13:42.766Z,16.27
2023-04-08T20:16:20.878Z,18.42
2023-04-08T20:18:51.727Z,18.20
2023-04-08T20:21:17.869Z,17.95
2023-04-08T20:23:44.375Z,17.83
2023-04-08T20:26:11.643Z,17.25
2023-04-08T20:28:37.945Z,18.08
2023-04-08T20:31:04.061Z,17.38
2023-04-08T20:33:31.400Z,18.23
2023-04-08T20:35:57.283Z,17.70
2023-04-08T20:38:24.277Z,17.48
2023-04-08T20:40:50.106Z,15.88
2023-04-08T20:43:17.818Z,17.73
2023-04-08T20:45:55.714Z,17.17
2023-04-08T20:48:21.669Z,17.02
2023-04-08T20:50:48.069Z,15.75
2023-04-08T20:53:13.932Z,17.08
2023-04-08T20:55:39.976Z,19.15
2023-04-08T20:58:07.004Z,17.45
2023-04-08T21:00:33.343Z,17.63
2023-04-08T21:03:00.392Z,18.92
2023-04-08T21:05:27.184Z,17.73
2023-04-08T21:07:53.497Z,18.17
2023-04-08T21:10:19.925Z,17.48
2023-04-08T21:12:45.802Z,18.58
2023-04-08T21:15:11.649Z,17.45
2023-04-08T21:17:37.475Z,18.25
2023-04-08T21:20:03.933Z,17.27
2023-04-08T21:22:29.877Z,18.77
2023-04-08T21:24:58.625Z,18.58
2023-04-08T21:27:24.391Z,18.10
2023-04-08T21:29:51.809Z,18.05
2023-04-08T21:32:17.682Z,18.85
2023-04-08T21:34:43.510Z,17.67
2023-04-08T21:37:09.365Z,18.48
2023-04-08T21:39:35.264Z,17.05
2023-04-08T21:42:01.350Z,20.38
2023-04-08T21:44:27.385Z,19.05
2023-04-08T21:46:54.098Z,19.52
2023-04-08T21:49:20.203Z,19.63
2023-04-08T21:51:46.080Z,21.17
2023-04-08T21:54:12.386Z,21.30
2023-04-08T21:56:38.278Z,21.55
2023-04-08T21:59:04.059Z,20.35
2023-04-08T22:01:29.933Z,19.65
2023-04-08T22:03:56.130Z,21.65
2023-04-08T22:06:31.469Z,20.15
2023-04-08T22:08:58.221Z,20.85
2023-04-08T22:11:24.063Z,21.08
2023-04-08T22:13:49.887Z,22.70
2023-04-08T22:16:15.675Z,20.42
2023-04-08T22:18:41.613Z,21.08
2023-04-08T22:21:07.425Z,20.98
2023-04-08T22:23:33.181Z,22.80
2023-04-08T22:25:59.002Z,24.05
2023-04-08T22:28:24.945Z,21.02
2023-04-08T22:30:50.870Z,21.75
2023-04-08T22:33:16.718Z,22.60
2023-04-08T22:35:42.615Z,24.42
2023-04-08T22:38:08.483Z,21.83
2023-04-08T22:40:34.976Z,22.08
2023-04-08T22:43:00.664Z,21.90
2023-04-08T22:45:26.386Z,21.88
2023-04-08T22:47:53.644Z,22.55
2023-04-08T22:50:19.408Z,23.08
2023-04-08T22:52:45.261Z,21.50
2023-04-08T22:55:11.065Z,23.30
2023-04-08T22:57:36.804Z,23.80
2023-04-08T23:00:04.476Z,22.85
2023-04-08T23:02:30.682Z,27.48
2023-04-08T23:04:56.415Z,25.50
2023-04-08T23:07:22.280Z,25.20
2023-04-08T23:09:48.007Z,26.65
2023-04-08T23:12:13.751Z,25.33
2023-04-08T23:14:39.459Z,27.35
2023-04-08T23:17:05.690Z,26.38
2023-04-08T23:19:31.390Z,26.17
2023-04-08T23:21:57.114Z,25.42
2023-04-08T23:24:22.861Z,24.52
2023-04-08T23:26:48.647Z,26.02
2023-04-08T23:29:14.793Z,22.17
2023-04-08T23:31:40.688Z,23.17
2023-04-08T23:34:06.583Z,22.23
2023-04-08T23:36:32.304Z,22.35
2023-04-08T23:38:58.063Z,22.30
2023-04-08T23:41:23.799Z,23.67
2023-04-08T23:43:49.539Z,23.00
2023-04-08T23:46:15.313Z,24.98
2023-04-08T23:48:41.103Z,23.83
2023-04-08T23:51:06.882Z,22.55
2023-04-08T23:53:32.632Z,23.77
2023-04-08T23:56:05.405Z,24.20
2023-04-08T23:58:31.118Z,23.65
